createdAt,value
2019-01-14T00:01:12.347Z,1.22
2019-01-14T00:03:41.664Z,1.57
2019-01-14T00:06:10.969Z,1.65
2019-01-14T00:08:40.146Z,1.22
2019-01-14T00:11:09.362Z,1.50
2019-01-14T00:13:38.600Z,1.72
2019-01-14T00:16:07.872Z,1.25
2019-01-14T00:18:37.068Z,1.50
2019-01-14T00:21:06.237Z,1.80
2019-01-14T00:23:35.366Z,1.40
2019-01-14T00:26:05.145Z,1.30
2019-01-14T00:28:34.285Z,2.62
2019-01-14T00:31:03.401Z,1.40
2019-01-14T00:33:32.573Z,1.55
2019-01-14T00:36:01.740Z,2.45
2019-01-14T00:38:31.833Z,1.70
2019-01-14T00:41:01.111Z,1.87
2019-01-14T00:43:30.343Z,1.85
2019-01-14T00:45:59.476Z,2.20
2019-01-14T00:48:28.550Z,2.00
2019-01-14T00:50:57.642Z,2.33
2019-01-14T00:53:26.721Z,1.92
2019-01-14T00:55:55.838Z,1.90
2019-01-14T00:58:25.007Z,1.52
2019-01-14T01:00:54.192Z,1.57
2019-01-14T01:03:23.464Z,1.40
2019-01-14T01:05:52.700Z,1.27
2019-01-14T01:08:21.883Z,1.75
2019-01-14T01:10:51.224Z,1.20
2019-01-14T01:13:20.336Z,1.75
2019-01-14T01:15:49.526Z,1.70
2019-01-14T01:18:18.723Z,1.80
2019-01-14T01:20:47.908Z,2.25
2019-01-14T01:23:17.046Z,1.82
2019-01-14T01:25:46.220Z,1.40
2019-01-14T01:28:15.314Z,1.98
2019-01-14T01:30:44.489Z,3.55
2019-01-14T01:33:13.582Z,1.77
2019-01-14T01:35:42.688Z,1.90
2019-01-14T01:38:11.836Z,2.42
2019-01-14T01:40:40.944Z,2.00
2019-01-14T01:43:10.016Z,2.87
2019-01-14T01:45:39.103Z,3.05
2019-01-14T01:48:08.188Z,2.20
2019-01-14T01:50:37.351Z,2.08
2019-01-14T01:53:06.693Z,1.95
2019-01-14T01:55:35.943Z,2.22
2019-01-14T01:58:05.088Z,2.52
2019-01-14T02:00:34.416Z,2.05
2019-01-14T02:03:03.566Z,1.90
2019-01-14T02:05:32.738Z,1.55
2019-01-14T02:08:03.515Z,2.25
2019-01-14T02:10:32.696Z,2.12
2019-01-14T02:13:01.762Z,2.33
2019-01-14T02:15:30.907Z,2.83
2019-01-14T02:18:00.060Z,3.10
2019-01-14T02:20:29.241Z,2.30
2019-01-14T02:22:58.420Z,2.12
2019-01-14T02:25:27.516Z,2.33
2019-01-14T02:27:56.604Z,2.00
2019-01-14T02:30:25.808Z,2.70
2019-01-14T02:32:54.981Z,2.65
2019-01-14T02:35:24.153Z,2.90
2019-01-14T02:37:53.253Z,2.27
2019-01-14T02:40:23.003Z,2.85
2019-01-14T02:42:52.225Z,2.35
2019-01-14T02:45:21.441Z,3.02
2019-01-14T02:47:50.565Z,2.72
2019-01-14T02:50:19.802Z,3.00
2019-01-14T02:52:48.973Z,2.40
2019-01-14T02:55:18.209Z,3.15
2019-01-14T02:57:47.411Z,3.80
2019-01-14T03:00:19.552Z,3.60
2019-01-14T03:02:48.722Z,4.03
2019-01-14T03:05:17.984Z,3.08
2019-01-14T03:07:47.678Z,3.92
2019-01-14T03:10:17.096Z,3.62
2019-01-14T03:12:47.517Z,3.25
2019-01-14T03:15:17.682Z,3.15
2019-01-14T03:17:46.910Z,2.20
2019-01-14T03:20:16.332Z,4.20
2019-01-14T03:22:45.628Z,3.45
2019-01-14T03:25:15.265Z,3.35
2019-01-14T03:27:44.626Z,4.50
2019-01-14T03:30:16.326Z,6.15
2019-01-14T03:32:45.562Z,3.37
2019-01-14T03:35:14.896Z,4.37
2019-01-14T03:37:44.106Z,2.60
2019-01-14T03:40:17.989Z,4.25
2019-01-14T03:42:47.101Z,4.33
2019-01-14T03:45:16.342Z,4.90
2019-01-14T03:47:45.560Z,3.87
2019-01-14T03:50:20.374Z,3.98
2019-01-14T03:52:49.634Z,3.55
2019-01-14T03:55:18.913Z,3.67
2019-01-14T03:57:48.125Z,2.17
2019-01-14T04:00:18.001Z,3.72
2019-01-14T04:02:47.220Z,5.40
2019-01-14T04:05:16.384Z,3.10
2019-01-14T04:07:45.544Z,3.87
2019-01-14T04:10:15.879Z,4.72
2019-01-14T04:12:45.060Z,5.08
2019-01-14T04:15:16.177Z,4.95
2019-01-14T04:17:45.335Z,3.17
2019-01-14T04:20:15.808Z,4.17
2019-01-14T04:22:45.268Z,3.45
2019-01-14T04:25:14.685Z,3.72
2019-01-14T04:27:44.099Z,3.37
2019-01-14T04:30:21.324Z,5.30
2019-01-14T04:32:50.953Z,3.08
2019-01-14T04:35:21.416Z,4.47
2019-01-14T04:37:50.817Z,4.12
2019-01-14T04:40:20.081Z,5.03
2019-01-14T04:42:49.243Z,3.65
2019-01-14T04:45:18.484Z,4.40
2019-01-14T04:47:47.568Z,4.75
2019-01-14T04:50:18.684Z,3.42
2019-01-14T04:52:47.774Z,3.52
2019-01-14T04:55:17.100Z,4.42
2019-01-14T04:57:46.260Z,3.45
2019-01-14T05:00:20.525Z,4.53
2019-01-14T05:02:49.716Z,3.83
2019-01-14T05:05:19.321Z,4.10
2019-01-14T05:07:48.410Z,3.05
2019-01-14T05:10:18.211Z,4.62
2019-01-14T05:12:47.510Z,3.37
2019-01-14T05:15:16.811Z,3.85
2019-01-14T05:17:45.914Z,3.30
2019-01-14T05:20:23.376Z,3.60
2019-01-14T05:22:52.844Z,4.90
2019-01-14T05:25:22.085Z,3.52
2019-01-14T05:27:51.242Z,3.77
2019-01-14T05:30:20.471Z,3.80
2019-01-14T05:32:49.661Z,5.15
2019-01-14T05:35:20.123Z,3.95
2019-01-14T05:37:49.299Z,4.75
2019-01-14T05:40:20.465Z,5.22
2019-01-14T05:42:52.030Z,3.65
2019-01-14T05:45:21.350Z,3.50
2019-01-14T05:47:50.605Z,4.20
2019-01-14T05:50:19.941Z,3.60
2019-01-14T05:55:26.742Z,4.70
2019-01-14T05:57:55.943Z,4.58
2019-01-14T06:00:30.602Z,5.15
2019-01-14T06:09:39.510Z,4.17
2019-01-14T06:12:08.692Z,4.42
2019-01-14T06:14:38.050Z,3.45
2019-01-14T06:17:07.248Z,4.83
2019-01-14T06:19:38.279Z,3.27
2019-01-14T06:22:07.697Z,4.00
2019-01-14T06:24:40.890Z,5.15
2019-01-14T06:27:21.822Z,4.75
2019-01-14T06:30:17.204Z,4.33
2019-01-14T06:32:59.863Z,5.50
2019-01-14T06:38:52.565Z,5.25
2019-01-14T06:41:40.340Z,6.15
2019-01-14T06:53:33.933Z,4.97
2019-01-14T06:56:03.152Z,4.65
2019-01-14T06:58:35.427Z,5.10
2019-01-14T07:01:05.835Z,4.80
2019-01-14T07:03:35.113Z,4.22
2019-01-14T07:06:04.953Z,6.42
2019-01-14T07:08:34.189Z,5.92
2019-01-14T07:11:04.144Z,4.60
2019-01-14T07:13:33.342Z,4.70
2019-01-14T07:16:02.692Z,4.22
2019-01-14T07:18:32.026Z,7.30
2019-01-14T07:21:01.430Z,4.85
2019-01-14T07:23:30.722Z,5.55
2019-01-14T07:26:00.055Z,4.85
2019-01-14T07:28:29.280Z,3.12
2019-01-14T07:30:59.287Z,3.83
2019-01-14T07:33:28.598Z,4.17
2019-01-14T07:35:57.904Z,4.80
2019-01-14T07:38:27.157Z,4.75
2019-01-14T07:40:56.503Z,5.35
2019-01-14T07:43:25.726Z,5.30
2019-01-14T07:45:55.145Z,4.92
2019-01-14T07:48:24.486Z,4.08
2019-01-14T07:50:53.837Z,5.22
2019-01-14T07:53:23.058Z,4.65
2019-01-14T07:55:52.255Z,4.03
2019-01-14T07:58:21.487Z,3.62
2019-01-14T08:00:50.849Z,4.80
2019-01-14T08:03:20.063Z,3.50
2019-01-14T08:05:49.366Z,3.27
2019-01-14T08:08:18.596Z,3.92
2019-01-14T08:10:48.911Z,4.35
2019-01-14T08:13:18.229Z,3.95
2019-01-14T08:15:49.680Z,5.03
2019-01-14T08:18:18.942Z,3.62
2019-01-14T08:20:48.274Z,5.10
2019-01-14T08:23:17.523Z,3.37
2019-01-14T08:25:46.824Z,4.65
2019-01-14T08:28:16.047Z,3.65
2019-01-14T08:30:45.349Z,3.98
2019-01-14T08:33:17.193Z,4.10
2019-01-14T08:35:46.438Z,3.17
2019-01-14T08:38:21.147Z,3.90
2019-01-14T08:40:48.062Z,3.58
2019-01-14T08:43:17.637Z,2.30
2019-01-14T08:45:47.402Z,2.95
2019-01-14T08:48:20.726Z,2.90
2019-01-14T08:50:51.570Z,3.83
2019-01-14T08:53:21.084Z,2.70
2019-01-14T08:55:50.653Z,3.92
2019-01-14T08:58:21.997Z,3.92
2019-01-14T09:00:51.236Z,3.33
2019-01-14T09:03:20.483Z,4.70
2019-01-14T09:05:49.884Z,3.47
2019-01-14T09:08:19.178Z,2.45
2019-01-14T09:10:48.546Z,3.15
2019-01-14T09:13:17.889Z,2.52
2019-01-14T09:15:47.427Z,3.80
2019-01-14T09:18:16.766Z,2.70
2019-01-14T09:20:46.175Z,3.37
2019-01-14T09:23:15.519Z,3.20
2019-01-14T09:25:44.914Z,3.30
2019-01-14T09:28:14.319Z,3.30
2019-01-14T09:30:43.535Z,4.05
2019-01-14T09:33:12.854Z,3.45
2019-01-14T09:35:42.208Z,2.50
2019-01-14T09:38:11.578Z,3.05
2019-01-14T09:40:40.920Z,2.92
2019-01-14T09:43:10.238Z,3.02
2019-01-14T09:45:39.477Z,2.40
2019-01-14T09:48:08.714Z,3.67
2019-01-14T09:50:37.967Z,2.85
2019-01-14T09:53:07.110Z,3.98
2019-01-14T09:55:36.349Z,3.27
2019-01-14T09:58:05.695Z,2.08
2019-01-14T10:00:34.988Z,3.95
2019-01-14T10:03:04.347Z,3.35
2019-01-14T10:05:33.605Z,2.55
2019-01-14T10:08:02.888Z,3.15
2019-01-14T10:10:32.161Z,2.83
2019-01-14T10:13:01.363Z,2.70
2019-01-14T10:15:31.412Z,2.35
2019-01-14T10:18:03.173Z,3.20
2019-01-14T10:20:32.407Z,2.47
2019-01-14T10:23:01.762Z,3.40
2019-01-14T10:25:32.796Z,4.97
2019-01-14T10:28:02.148Z,7.37
2019-01-14T10:30:31.346Z,3.20
2019-01-14T10:33:00.758Z,3.15
2019-01-14T10:35:29.982Z,3.37
2019-01-14T10:37:59.163Z,2.50
2019-01-14T10:40:28.390Z,3.52
2019-01-14T10:42:58.874Z,3.67
2019-01-14T10:45:28.047Z,2.72
2019-01-14T10:47:57.313Z,3.42
2019-01-14T10:50:27.146Z,2.37
2019-01-14T10:52:57.058Z,2.80
2019-01-14T10:55:26.440Z,2.77
2019-01-14T10:57:55.731Z,2.98
2019-01-14T11:00:31.225Z,3.05
2019-01-14T11:03:00.562Z,2.67
2019-01-14T11:05:31.064Z,2.50
2019-01-14T11:08:00.428Z,2.80
2019-01-14T11:10:29.693Z,2.98
2019-01-14T11:12:58.962Z,2.87
2019-01-14T11:15:28.396Z,3.60
2019-01-14T11:17:57.943Z,2.87
2019-01-14T11:20:31.742Z,2.70
2019-01-14T11:23:01.760Z,2.37
2019-01-14T11:25:31.373Z,2.85
2019-01-14T11:28:00.844Z,2.47
2019-01-14T11:30:31.424Z,3.00
2019-01-14T11:33:00.801Z,2.62
2019-01-14T11:35:30.201Z,3.45
2019-01-14T11:37:59.572Z,3.60
2019-01-14T11:40:40.147Z,3.22
2019-01-14T11:43:09.522Z,3.20
2019-01-14T11:45:38.873Z,3.17
2019-01-14T11:48:08.179Z,4.53
2019-01-14T11:50:37.800Z,2.95
2019-01-14T11:53:07.069Z,3.77
2019-01-14T11:55:36.387Z,3.40
2019-01-14T11:58:05.819Z,3.58
2019-01-14T12:00:36.777Z,2.42
2019-01-14T12:03:06.132Z,3.60
2019-01-14T12:05:35.317Z,2.72
2019-01-14T12:08:04.606Z,3.40
2019-01-14T12:10:33.922Z,3.27
2019-01-14T12:13:03.224Z,2.60
2019-01-14T12:15:32.550Z,2.60
2019-01-14T12:18:01.792Z,2.42
2019-01-14T12:20:31.074Z,2.22
2019-01-14T12:23:00.426Z,2.83
2019-01-14T12:25:29.617Z,2.35
2019-01-14T12:27:58.805Z,3.33
2019-01-14T12:30:33.121Z,1.98
2019-01-14T12:33:02.343Z,2.67
2019-01-14T12:35:31.675Z,2.12
2019-01-14T12:38:01.025Z,2.60
2019-01-14T12:40:30.285Z,2.83
2019-01-14T12:42:59.561Z,2.85
2019-01-14T12:45:28.902Z,2.95
2019-01-14T12:47:58.155Z,2.62
2019-01-14T12:50:27.454Z,2.50
2019-01-14T12:52:58.085Z,2.10
2019-01-14T12:55:27.289Z,3.00
2019-01-14T12:57:56.560Z,3.70
2019-01-14T13:00:27.425Z,3.47
2019-01-14T13:02:58.462Z,2.90
2019-01-14T13:05:29.643Z,3.33
2019-01-14T13:07:58.958Z,3.45
2019-01-14T13:10:28.262Z,3.90
2019-01-14T13:12:57.586Z,2.80
2019-01-14T13:15:28.225Z,2.98
2019-01-14T13:17:57.409Z,2.80
2019-01-14T13:20:26.722Z,3.02
2019-01-14T13:22:56.067Z,2.20
2019-01-14T13:25:25.335Z,2.67
2019-01-14T13:27:54.548Z,3.00
2019-01-14T13:30:26.033Z,2.42
2019-01-14T13:32:55.419Z,2.58
2019-01-14T13:35:26.363Z,2.65
2019-01-14T13:37:55.567Z,3.20
2019-01-14T13:40:24.943Z,3.22
2019-01-14T13:42:54.122Z,3.02
2019-01-14T13:45:23.361Z,3.55
2019-01-14T13:47:52.585Z,2.50
2019-01-14T13:50:24.087Z,2.62
2019-01-14T13:52:54.059Z,2.92
2019-01-14T13:55:23.413Z,3.98
2019-01-14T13:57:52.822Z,2.80
2019-01-14T14:00:23.733Z,3.05
2019-01-14T14:02:53.229Z,4.28
2019-01-14T14:05:22.937Z,2.47
2019-01-14T14:07:52.300Z,2.47
2019-01-14T14:10:23.661Z,2.60
2019-01-14T14:12:52.923Z,1.87
2019-01-14T14:15:23.997Z,3.50
2019-01-14T14:17:53.285Z,1.65
2019-01-14T14:20:22.484Z,2.50
2019-01-14T14:22:51.755Z,2.25
2019-01-14T14:25:20.949Z,2.42
2019-01-14T14:27:50.106Z,2.50
2019-01-14T14:30:39.177Z,2.67
2019-01-14T14:33:09.660Z,1.90
2019-01-14T14:35:39.023Z,2.35
2019-01-14T14:38:10.659Z,1.87
2019-01-14T14:40:39.854Z,1.92
2019-01-14T14:43:09.063Z,2.33
2019-01-14T14:45:38.566Z,2.25
2019-01-14T14:48:08.393Z,2.20
2019-01-14T14:50:37.920Z,2.42
2019-01-14T14:53:08.078Z,2.55
2019-01-14T14:55:37.565Z,2.95
2019-01-14T14:58:06.848Z,2.85
2019-01-14T15:00:36.077Z,2.45
2019-01-14T15:03:06.382Z,3.40
2019-01-14T15:05:35.663Z,3.72
2019-01-14T15:08:05.035Z,3.75
2019-01-14T15:10:34.221Z,3.58
2019-01-14T15:13:03.479Z,2.90
2019-01-14T15:15:33.822Z,2.50
2019-01-14T15:18:04.990Z,2.40
2019-01-14T15:20:34.333Z,2.83
2019-01-14T15:23:03.876Z,2.30
2019-01-14T15:25:33.086Z,2.33
2019-01-14T15:28:02.375Z,2.50
2019-01-14T15:30:31.850Z,2.40
2019-01-14T15:33:01.156Z,1.98
2019-01-14T15:35:30.601Z,2.33
2019-01-14T15:38:01.906Z,2.27
2019-01-14T15:40:31.245Z,2.12
2019-01-14T15:43:02.530Z,2.20
2019-01-14T15:45:31.533Z,2.52
2019-01-14T15:48:00.720Z,1.87
2019-01-14T15:50:29.984Z,2.83
2019-01-14T15:53:01.666Z,2.02
2019-01-14T15:55:31.010Z,1.90
2019-01-14T15:58:00.220Z,1.90
2019-01-14T16:00:30.661Z,3.02
2019-01-14T16:02:59.912Z,2.30
2019-01-14T16:05:33.409Z,1.95
2019-01-14T16:08:12.768Z,2.40
2019-01-14T16:14:05.599Z,2.72
2019-01-14T16:16:38.427Z,1.87
2019-01-14T16:19:08.067Z,3.90
2019-01-14T16:21:54.779Z,2.62
2019-01-14T16:24:24.121Z,2.35
2019-01-14T16:26:54.851Z,2.62
2019-01-14T16:29:26.363Z,2.00
2019-01-14T16:31:55.638Z,2.60
2019-01-14T16:34:26.211Z,2.98
2019-01-14T16:36:59.013Z,2.35
2019-01-14T16:39:28.331Z,3.47
2019-01-14T16:45:12.300Z,3.30
2019-01-14T16:47:41.534Z,2.25
2019-01-14T16:50:11.608Z,2.62
2019-01-14T16:52:41.147Z,2.40
2019-01-14T16:55:11.643Z,2.25
2019-01-14T16:57:40.972Z,2.75
2019-01-14T17:00:20.989Z,3.87
2019-01-14T17:02:50.150Z,3.25
2019-01-14T17:05:29.312Z,2.80
2019-01-14T17:07:58.527Z,2.52
2019-01-14T17:10:27.833Z,3.15
2019-01-14T17:13:13.700Z,2.92
2019-01-14T17:15:49.220Z,2.17
2019-01-14T17:32:02.919Z,3.12
2019-01-14T17:34:29.564Z,2.90
2019-01-14T17:40:06.882Z,2.95
2019-01-14T17:42:54.500Z,3.33
2019-01-14T18:17:44.868Z,3.70
2019-01-14T18:24:00.090Z,3.00
2019-01-14T18:26:30.298Z,3.08
2019-01-14T18:28:59.481Z,4.00
2019-01-14T18:31:28.805Z,3.85
2019-01-14T18:33:57.986Z,3.08
2019-01-14T18:36:27.154Z,2.87
2019-01-14T18:38:56.276Z,4.17
2019-01-14T18:41:25.517Z,3.42
2019-01-14T18:43:55.140Z,2.55
2019-01-14T18:46:24.349Z,4.28
2019-01-14T18:48:54.693Z,3.12
2019-01-14T18:51:23.955Z,3.22
2019-01-14T18:53:53.950Z,3.67
2019-01-14T18:56:23.311Z,4.62
2019-01-14T18:58:52.586Z,3.60
2019-01-14T19:01:21.914Z,3.90
2019-01-14T19:03:51.232Z,3.20
2019-01-14T19:06:20.610Z,3.20
2019-01-14T19:08:50.191Z,2.98
2019-01-14T19:11:19.676Z,2.75
2019-01-14T19:13:49.574Z,4.33
2019-01-14T19:16:19.181Z,2.70
2019-01-14T19:18:48.457Z,2.90
2019-01-14T19:21:17.847Z,3.20
2019-01-14T19:23:47.096Z,2.87
2019-01-14T19:26:16.539Z,2.75
2019-01-14T19:28:45.824Z,4.10
2019-01-14T19:31:17.480Z,2.95
2019-01-14T19:33:46.859Z,2.70
2019-01-14T19:36:17.429Z,2.45
2019-01-14T19:38:46.791Z,4.03
2019-01-14T19:41:16.217Z,2.92
2019-01-14T19:43:45.623Z,3.90
2019-01-14T19:46:15.087Z,2.37
2019-01-14T19:48:44.384Z,3.37
2019-01-14T19:51:13.801Z,4.25
2019-01-14T19:53:43.253Z,3.40
2019-01-14T19:56:12.740Z,4.10
2019-01-14T19:58:42.058Z,2.95
2019-01-14T20:01:14.066Z,2.50
2019-01-14T20:03:43.384Z,2.95
2019-01-14T20:06:12.817Z,4.05
2019-01-14T20:08:42.118Z,3.80
2019-01-14T20:11:12.282Z,2.92
2019-01-14T20:13:41.593Z,3.45
2019-01-14T20:16:12.187Z,3.90
2019-01-14T20:18:41.783Z,2.87
2019-01-14T20:21:11.358Z,2.62
2019-01-14T20:23:40.653Z,3.12
2019-01-14T20:26:10.053Z,3.45
2019-01-14T20:28:39.317Z,3.10
2019-01-14T20:31:08.661Z,3.00
2019-01-14T20:33:37.961Z,2.65
2019-01-14T20:36:07.290Z,3.17
2019-01-14T20:38:36.543Z,3.33
2019-01-14T20:41:05.884Z,2.75
2019-01-14T20:43:35.256Z,2.52
2019-01-14T20:46:04.606Z,3.40
2019-01-14T20:48:33.817Z,3.30
2019-01-14T20:51:05.730Z,3.70
2019-01-14T20:53:34.978Z,3.20
2019-01-14T20:56:04.477Z,3.05
2019-01-14T20:58:43.227Z,3.87
2019-01-14T21:04:10.575Z,3.35
2019-01-14T21:06:50.033Z,4.28
2019-01-14T21:09:19.207Z,3.27
2019-01-14T21:11:48.570Z,3.00
2019-01-14T21:14:17.805Z,2.47
2019-01-14T22:50:47.249Z,3.17
2019-01-14T22:56:20.551Z,3.33
2019-01-14T23:02:04.926Z,2.10
2019-01-14T23:04:34.624Z,2.87
2019-01-14T23:07:05.797Z,3.35
2019-01-14T23:09:36.976Z,2.75
2019-01-14T23:12:06.774Z,3.58
2019-01-14T23:14:46.057Z,3.70
2019-01-14T23:17:39.844Z,3.37
2019-01-14T23:20:18.055Z,2.52
2019-01-14T23:22:51.003Z,3.20
2019-01-14T23:25:25.222Z,3.17
2019-01-14T23:28:01.413Z,3.40
2019-01-14T23:30:34.482Z,2.20
2019-01-14T23:33:05.856Z,2.37
2019-01-14T23:35:46.403Z,3.87
2019-01-14T23:38:19.565Z,2.72
2019-01-14T23:40:52.548Z,2.65
2019-01-14T23:43:45.353Z,2.75
2019-01-14T23:46:18.608Z,2.90
2019-01-14T23:48:48.485Z,3.02
2019-01-14T23:51:18.445Z,3.50
2019-01-14T23:53:49.655Z,2.42
